< < Back
Terminal Aerodrome Forecast


Current Version              Previous Versions:   1  2  3  4  5  6  7  8  9  

Terminal Aerodrome Forecast

225
FTUS44 KHUN 291720
TAFHSV
TAF
KHSV 291720Z 2918/3018 35010KT P6SM SCT040
     FM300000 01004KT P6SM SKC=



Latest METAR

513
SAUS80 KWBC 301500 RRC
MTRHSV
METAR KHSV 301453Z 03007KT 360V070 10SM SCT250 24/13 A3012 RMK AO2
SLP193 T02390133 51005


USA.gov is the U.S. government's official web portal to all federal, state and local government web resources and services.